createdAt,value
2019-03-16T00:00:55.766Z,101017.30
2019-03-16T00:03:24.816Z,101029.23
2019-03-16T00:05:54.168Z,101026.34
2019-03-16T00:08:23.219Z,101019.49
2019-03-16T00:10:52.227Z,101013.14
2019-03-16T00:13:21.263Z,101013.14
2019-03-16T00:15:50.278Z,101017.64
2019-03-16T00:18:19.214Z,101024.35
2019-03-16T00:20:48.611Z,101020.17
2019-03-16T00:23:18.033Z,101025.69
2019-03-16T00:25:47.068Z,101026.70
2019-03-16T00:28:16.135Z,101026.70
2019-03-16T00:30:46.121Z,101026.69
2019-03-16T00:33:15.420Z,101027.36
2019-03-16T00:35:44.748Z,101022.52
2019-03-16T00:38:13.762Z,101019.33
2019-03-16T00:40:42.760Z,101025.03
2019-03-16T00:43:11.840Z,101013.95
2019-03-16T00:45:40.908Z,101003.58
2019-03-16T00:48:09.902Z,101004.73
2019-03-16T00:50:38.938Z,101004.73
2019-03-16T00:53:07.950Z,101007.25
2019-03-16T00:55:36.980Z,101010.27
2019-03-16T00:58:06.014Z,101012.97
2019-03-16T01:00:35.372Z,101005.27
2019-03-16T01:03:04.636Z,100999.55
2019-03-16T01:05:33.686Z,101001.56
2019-03-16T01:08:03.020Z,101012.30
2019-03-16T01:10:32.384Z,101002.57
2019-03-16T01:13:01.687Z,100998.88
2019-03-16T01:15:31.404Z,100998.89
2019-03-16T01:18:00.442Z,100994.88
2019-03-16T01:20:29.490Z,100991.19
2019-03-16T01:22:58.540Z,100990.84
2019-03-16T01:25:27.882Z,100982.80
2019-03-16T01:27:57.191Z,100986.47
2019-03-16T01:30:26.604Z,100976.11
2019-03-16T01:32:55.958Z,100985.99
2019-03-16T01:35:25.019Z,100979.27
2019-03-16T01:37:54.034Z,100981.29
2019-03-16T01:40:23.059Z,100982.80
2019-03-16T01:42:52.126Z,100981.30
2019-03-16T01:45:21.196Z,100964.55
2019-03-16T01:47:50.234Z,100982.16
2019-03-16T01:50:21.709Z,100974.11
2019-03-16T01:52:50.076Z,100964.88
2019-03-16T01:55:19.392Z,100961.04
2019-03-16T01:57:48.464Z,100968.73
2019-03-16T02:00:17.592Z,100952.67
2019-03-16T02:02:54.938Z,100967.06
2019-03-16T02:05:17.725Z,100960.38
2019-03-16T02:07:47.120Z,100947.31
2019-03-16T02:10:16.529Z,100938.94
2019-03-16T02:12:45.834Z,100963.05
2019-03-16T02:15:14.930Z,100953.34
2019-03-16T02:17:44.332Z,100942.94
2019-03-16T02:20:13.735Z,100934.25
2019-03-16T02:22:43.063Z,100925.69
2019-03-16T02:25:12.078Z,100922.85
2019-03-16T02:27:41.114Z,100923.54
2019-03-16T02:30:10.194Z,100919.51
2019-03-16T02:32:39.240Z,100918.50
2019-03-16T02:35:08.648Z,100927.05
2019-03-16T02:37:37.647Z,100918.52
2019-03-16T02:40:06.917Z,100917.32
2019-03-16T02:42:36.287Z,100907.11
2019-03-16T02:45:05.597Z,100914.48
2019-03-16T02:47:35.370Z,100899.08
2019-03-16T02:50:05.446Z,100895.06
2019-03-16T02:52:35.439Z,100905.11
2019-03-16T02:55:05.156Z,100892.05
2019-03-16T02:57:34.596Z,100898.09
2019-03-16T03:00:03.834Z,100899.09
2019-03-16T03:02:32.849Z,100896.38
2019-03-16T03:05:02.236Z,100892.72
2019-03-16T03:07:31.252Z,100884.34
2019-03-16T03:10:00.612Z,100901.40
2019-03-16T03:12:29.611Z,100894.36
2019-03-16T03:14:58.640Z,100894.02
2019-03-16T03:17:28.056Z,100888.68
2019-03-16T03:19:57.090Z,100894.04
2019-03-16T03:22:26.528Z,100881.66
2019-03-16T03:24:55.531Z,100884.00
2019-03-16T03:27:24.581Z,100880.80
2019-03-16T03:29:57.139Z,100896.72
2019-03-16T03:32:24.345Z,100882.99
2019-03-16T03:34:53.401Z,100891.03
2019-03-16T03:37:22.450Z,100897.41
2019-03-16T03:39:51.451Z,100881.98
2019-03-16T03:42:20.479Z,100882.67
2019-03-16T03:44:49.806Z,100888.36
2019-03-16T03:47:19.183Z,100886.69
2019-03-16T03:49:48.532Z,100883.16
2019-03-16T03:52:18.259Z,100889.38
2019-03-16T03:54:48.115Z,100902.44
2019-03-16T03:57:17.437Z,100913.81
2019-03-16T03:59:46.461Z,100899.75
2019-03-16T04:02:15.508Z,100913.66
2019-03-16T04:04:44.557Z,100906.46
2019-03-16T04:07:13.562Z,100904.10
2019-03-16T04:09:42.580Z,100903.77
2019-03-16T04:12:11.604Z,100905.46
2019-03-16T04:14:40.652Z,100897.75
2019-03-16T04:17:09.749Z,100874.64
2019-03-16T04:19:38.785Z,100890.36
2019-03-16T04:22:07.802Z,100881.83
2019-03-16T04:24:36.925Z,100902.26
2019-03-16T04:27:15.995Z,100888.37
2019-03-16T04:29:37.025Z,100901.76
2019-03-16T04:32:06.074Z,100881.16
2019-03-16T04:34:35.161Z,100884.52
2019-03-16T04:37:04.546Z,100883.36
2019-03-16T04:39:33.557Z,100871.95
2019-03-16T04:42:02.726Z,100878.98
2019-03-16T04:44:32.858Z,100874.63
2019-03-16T04:47:02.583Z,100876.98
2019-03-16T04:49:31.574Z,100885.03
2019-03-16T04:52:00.938Z,100874.31
2019-03-16T04:54:30.303Z,100886.02
2019-03-16T04:56:59.648Z,100886.03
2019-03-16T04:59:29.052Z,100882.69
2019-03-16T05:01:58.102Z,100889.05
2019-03-16T05:04:27.190Z,100895.39
2019-03-16T05:06:59.056Z,100886.35
2019-03-16T05:09:28.023Z,100888.03
2019-03-16T05:11:57.812Z,100893.21
2019-03-16T05:14:26.834Z,100873.97
2019-03-16T05:16:55.896Z,100881.67
2019-03-16T05:19:24.932Z,100878.48
2019-03-16T05:21:53.982Z,100863.60
2019-03-16T05:24:23.396Z,100882.34
2019-03-16T05:26:52.687Z,100875.66
2019-03-16T05:29:21.996Z,100866.28
2019-03-16T05:31:51.080Z,100875.14
2019-03-16T05:34:20.156Z,100882.36
2019-03-16T05:36:49.180Z,100869.78
2019-03-16T05:39:18.203Z,100888.37
2019-03-16T05:41:47.623Z,100872.97
2019-03-16T05:44:17.393Z,100873.46
2019-03-16T05:46:46.746Z,100877.80
2019-03-16T05:49:16.101Z,100888.03
2019-03-16T05:51:45.168Z,100872.11
2019-03-16T05:54:14.215Z,100896.90
2019-03-16T05:56:43.260Z,100879.98
2019-03-16T05:59:12.278Z,100871.28
2019-03-16T06:01:41.307Z,100883.67
2019-03-16T06:04:10.327Z,100885.32
2019-03-16T06:06:39.377Z,100885.67
2019-03-16T06:09:08.761Z,100883.48
2019-03-16T06:11:38.175Z,100872.95
2019-03-16T06:14:07.204Z,100884.34
2019-03-16T06:16:37.189Z,100877.64
2019-03-16T06:19:06.241Z,100874.63
2019-03-16T06:21:35.257Z,100874.78
2019-03-16T06:24:04.460Z,100890.69
2019-03-16T06:26:33.769Z,100880.31
2019-03-16T06:29:03.109Z,100874.59
2019-03-16T06:31:32.184Z,100877.59
2019-03-16T06:34:01.519Z,100865.70
2019-03-16T06:36:30.542Z,100862.83
2019-03-16T06:38:59.586Z,100861.84
2019-03-16T06:41:28.592Z,100864.55
2019-03-16T06:43:57.954Z,100869.22
2019-03-16T06:46:26.954Z,100869.88
2019-03-16T06:48:56.357Z,100869.88
2019-03-16T06:51:25.656Z,100857.84
2019-03-16T06:53:54.675Z,100856.82
2019-03-16T06:56:24.090Z,100856.82
2019-03-16T06:58:54.606Z,100863.17
2019-03-16T07:01:23.917Z,100875.90
2019-03-16T07:03:53.346Z,100864.02
2019-03-16T07:06:22.724Z,100867.53
2019-03-16T07:08:51.769Z,100874.25
2019-03-16T07:11:20.783Z,100875.71
2019-03-16T07:13:50.107Z,100863.52
2019-03-16T07:16:19.140Z,100842.73
2019-03-16T07:18:58.230Z,100860.84
2019-03-16T07:21:19.341Z,100860.84
2019-03-16T07:23:48.626Z,100850.77
2019-03-16T07:26:17.700Z,100850.77
2019-03-16T07:28:47.045Z,100853.73
2019-03-16T07:31:16.114Z,100848.05
2019-03-16T07:33:45.153Z,100852.44
2019-03-16T07:36:14.323Z,100852.92
2019-03-16T07:38:43.349Z,100851.55
2019-03-16T07:41:12.378Z,100844.04
2019-03-16T07:43:41.701Z,100862.80
2019-03-16T07:46:11.100Z,100853.44
2019-03-16T07:48:40.424Z,100853.44
2019-03-16T07:51:09.911Z,100854.55
2019-03-16T07:53:39.345Z,100845.67
2019-03-16T07:56:08.401Z,100846.66
2019-03-16T07:58:37.410Z,100853.33
2019-03-16T08:01:06.452Z,100847.80
2019-03-16T08:03:35.509Z,100837.88
2019-03-16T08:06:04.853Z,100840.18
2019-03-16T08:08:34.235Z,100847.29
2019-03-16T08:11:03.558Z,100841.86
2019-03-16T08:13:32.597Z,100837.16
2019-03-16T08:16:01.662Z,100836.47
2019-03-16T08:18:30.659Z,100835.95
2019-03-16T08:20:59.693Z,100830.11
2019-03-16T08:23:29.091Z,100830.79
2019-03-16T08:25:58.491Z,100825.45
2019-03-16T08:28:27.787Z,100817.38
2019-03-16T08:30:57.034Z,100810.70
2019-03-16T08:33:26.403Z,100821.05
2019-03-16T08:35:55.789Z,100819.13
2019-03-16T08:38:24.801Z,100813.92
2019-03-16T08:40:54.216Z,100804.68
2019-03-16T08:43:23.242Z,100812.10
2019-03-16T08:45:52.285Z,100803.55
2019-03-16T08:48:23.249Z,100803.55
2019-03-16T08:50:53.043Z,100788.83
2019-03-16T08:53:23.130Z,100795.19
2019-03-16T08:55:52.651Z,100813.25
2019-03-16T08:58:22.287Z,100803.13
2019-03-16T09:00:52.125Z,100801.52
2019-03-16T09:03:21.550Z,100798.66
2019-03-16T09:05:51.176Z,100791.61
2019-03-16T09:08:20.255Z,100784.11
2019-03-16T09:10:49.291Z,100784.11
2019-03-16T09:13:18.381Z,100800.79
2019-03-16T09:15:47.813Z,100792.91
2019-03-16T09:18:17.707Z,100792.17
2019-03-16T09:20:47.029Z,100794.65
2019-03-16T09:23:16.063Z,100774.06
2019-03-16T09:25:45.100Z,100803.34
2019-03-16T09:28:18.611Z,100761.64
2019-03-16T09:30:44.901Z,100772.33
2019-03-16T09:33:14.132Z,100771.98
2019-03-16T09:35:43.179Z,100768.23
2019-03-16T09:38:12.744Z,100755.16
2019-03-16T09:40:41.834Z,100754.05
2019-03-16T09:43:11.151Z,100760.62
2019-03-16T09:45:40.564Z,100752.20
2019-03-16T09:48:09.605Z,100761.66
2019-03-16T09:50:38.608Z,100764.83
2019-03-16T09:53:07.943Z,100758.74
2019-03-16T09:55:36.969Z,100768.38
2019-03-16T09:58:06.017Z,100757.11
2019-03-16T10:00:35.053Z,100779.44
2019-03-16T10:03:04.134Z,100780.31
2019-03-16T10:05:33.157Z,100770.27
2019-03-16T10:08:02.205Z,100764.59
2019-03-16T10:10:31.240Z,100788.33
2019-03-16T10:13:00.317Z,100765.84
2019-03-16T10:15:29.354Z,100769.66
2019-03-16T10:17:58.997Z,100778.36
2019-03-16T10:20:28.058Z,100787.62
2019-03-16T10:22:57.415Z,100773.16
2019-03-16T10:25:26.469Z,100760.13
2019-03-16T10:27:55.589Z,100763.02
2019-03-16T10:30:25.163Z,100757.58
2019-03-16T10:32:54.201Z,100761.61
2019-03-16T10:35:23.214Z,100753.59
2019-03-16T10:37:52.373Z,100749.78
2019-03-16T10:40:21.691Z,100743.90
2019-03-16T10:42:50.749Z,100742.30
2019-03-16T10:45:19.765Z,100737.02
2019-03-16T10:47:48.802Z,100727.67
2019-03-16T10:50:17.830Z,100748.18
2019-03-16T10:52:46.955Z,100737.41
2019-03-16T10:55:16.328Z,100741.00
2019-03-16T10:57:45.450Z,100725.23
2019-03-16T11:00:15.052Z,100737.31
2019-03-16T11:02:44.462Z,100739.19
2019-03-16T11:05:13.898Z,100716.23
2019-03-16T11:07:43.649Z,100721.86
2019-03-16T11:10:12.804Z,100738.69
2019-03-16T11:12:41.823Z,100720.95
2019-03-16T11:15:10.989Z,100711.56
2019-03-16T11:17:40.024Z,100713.59
2019-03-16T11:20:09.269Z,100713.59
2019-03-16T11:22:38.333Z,100693.34
2019-03-16T11:25:07.769Z,100674.83
2019-03-16T11:27:36.817Z,100690.58
2019-03-16T11:30:07.127Z,100703.86
2019-03-16T11:32:36.561Z,100685.93
2019-03-16T11:35:06.568Z,100683.22
2019-03-16T11:37:35.595Z,100693.05
2019-03-16T11:40:06.012Z,100682.30
2019-03-16T11:42:35.116Z,100681.23
2019-03-16T11:45:04.347Z,100671.95
2019-03-16T11:47:33.733Z,100678.39
2019-03-16T11:50:02.748Z,100657.14
2019-03-16T11:52:32.411Z,100682.41
2019-03-16T11:55:01.732Z,100656.30
2019-03-16T11:57:31.018Z,100672.14
2019-03-16T12:00:00.153Z,100663.91
2019-03-16T12:02:29.133Z,100680.77
2019-03-16T12:04:58.200Z,100645.41
2019-03-16T12:07:27.220Z,100643.23
2019-03-16T12:09:56.803Z,100649.25
2019-03-16T12:12:26.118Z,100647.37
2019-03-16T12:14:55.120Z,100671.78
2019-03-16T12:17:24.452Z,100636.63
2019-03-16T12:19:53.506Z,100650.66
2019-03-16T12:22:22.533Z,100651.60
2019-03-16T12:24:51.631Z,100652.89
2019-03-16T12:27:20.700Z,100621.83
2019-03-16T12:29:49.721Z,100639.63
2019-03-16T12:32:18.755Z,100642.91
2019-03-16T12:34:47.809Z,100632.34
2019-03-16T12:37:16.845Z,100640.09
2019-03-16T12:39:45.873Z,100624.57
2019-03-16T12:42:14.887Z,100624.20
2019-03-16T12:44:43.968Z,100606.89
2019-03-16T12:47:13.088Z,100612.08
2019-03-16T12:49:42.145Z,100606.83
2019-03-16T12:52:11.545Z,100607.59
2019-03-16T12:54:40.562Z,100616.87
2019-03-16T12:57:09.603Z,100610.94
2019-03-16T12:59:46.788Z,100610.30
2019-03-16T13:02:09.468Z,100606.67
2019-03-16T13:04:41.296Z,100602.95
2019-03-16T13:07:10.365Z,100603.98
2019-03-16T13:09:42.205Z,100595.87
2019-03-16T13:12:10.853Z,100581.58
2019-03-16T13:14:39.918Z,100576.94
2019-03-16T13:17:08.929Z,100588.05
2019-03-16T13:19:39.091Z,100577.77
2019-03-16T13:22:08.113Z,100599.25
2019-03-16T13:24:37.291Z,100612.34
2019-03-16T13:27:06.405Z,100585.91
2019-03-16T13:29:35.457Z,100570.26
2019-03-16T13:32:04.780Z,100561.64
2019-03-16T13:34:33.853Z,100566.34
2019-03-16T13:37:03.152Z,100558.96
2019-03-16T13:39:32.635Z,100562.20
2019-03-16T13:42:02.023Z,100553.28
2019-03-16T13:44:31.067Z,100537.66
2019-03-16T13:47:00.372Z,100523.67
2019-03-16T13:49:29.672Z,100534.93
2019-03-16T13:51:59.185Z,100530.16
2019-03-16T13:54:28.376Z,100537.62
2019-03-16T13:56:57.403Z,100532.53
2019-03-16T13:59:26.434Z,100524.28
2019-03-16T14:01:55.804Z,100537.28
2019-03-16T14:04:25.304Z,100525.28
2019-03-16T14:06:55.027Z,100512.86
2019-03-16T14:09:24.389Z,100504.64
2019-03-16T14:11:53.676Z,100499.77
2019-03-16T14:14:22.705Z,100510.91
2019-03-16T14:16:52.401Z,100512.00
2019-03-16T14:19:22.329Z,100504.02
2019-03-16T14:21:51.711Z,100505.48
2019-03-16T14:24:21.132Z,100498.50
2019-03-16T14:26:50.184Z,100492.59
2019-03-16T14:29:19.229Z,100476.63
2019-03-16T14:31:48.629Z,100478.59
2019-03-16T14:34:18.024Z,100471.61
2019-03-16T14:36:47.026Z,100467.13
2019-03-16T14:39:16.421Z,100470.69
2019-03-16T14:41:45.463Z,100469.56
2019-03-16T14:44:14.480Z,100456.39
2019-03-16T14:46:43.488Z,100458.45
2019-03-16T14:49:12.585Z,100467.34
2019-03-16T14:51:41.624Z,100446.80
2019-03-16T14:54:10.963Z,100440.08
2019-03-16T14:56:40.270Z,100439.63
2019-03-16T14:59:09.256Z,100421.34
2019-03-16T15:01:38.567Z,100423.94
2019-03-16T15:04:07.553Z,100420.29
2019-03-16T15:06:36.569Z,100420.30
2019-03-16T15:09:07.824Z,100407.60
2019-03-16T15:11:37.228Z,100409.28
2019-03-16T15:14:06.363Z,100399.86
2019-03-16T15:16:35.425Z,100396.98
2019-03-16T15:19:04.467Z,100387.98
2019-03-16T15:21:33.482Z,100375.38
2019-03-16T15:24:02.493Z,100368.94
2019-03-16T15:26:31.979Z,100363.58
2019-03-16T15:29:01.375Z,100360.31
2019-03-16T15:31:30.402Z,100361.03
2019-03-16T15:33:59.440Z,100353.40
2019-03-16T15:36:28.822Z,100361.80
2019-03-16T15:38:57.828Z,100348.44
2019-03-16T15:41:26.844Z,100351.99
2019-03-16T15:43:55.883Z,100337.62
2019-03-16T15:46:25.288Z,100339.98
2019-03-16T15:48:54.325Z,100335.28
2019-03-16T15:51:24.182Z,100329.18
2019-03-16T15:53:53.276Z,100339.16
2019-03-16T15:56:22.360Z,100320.62
2019-03-16T15:58:51.370Z,100314.31
2019-03-16T16:01:20.428Z,100323.64
2019-03-16T16:03:49.467Z,100308.66
2019-03-16T16:06:18.791Z,100306.73
2019-03-16T16:08:48.170Z,100302.73
2019-03-16T16:11:17.192Z,100287.60
2019-03-16T16:13:46.216Z,100292.59
2019-03-16T16:16:15.270Z,100282.16
2019-03-16T16:18:44.293Z,100266.08
2019-03-16T16:21:13.299Z,100273.80
2019-03-16T16:23:42.340Z,100259.55
2019-03-16T16:26:11.724Z,100256.95
2019-03-16T16:28:40.918Z,100250.98
2019-03-16T16:31:16.184Z,100242.00
2019-03-16T16:33:41.283Z,100237.62
2019-03-16T16:36:10.326Z,100229.69
2019-03-16T16:38:39.412Z,100225.73
2019-03-16T16:41:08.453Z,100218.20
2019-03-16T16:43:37.575Z,100211.05
2019-03-16T16:46:06.806Z,100216.19
2019-03-16T16:48:35.933Z,100207.86
2019-03-16T16:51:04.990Z,100209.66
2019-03-16T16:53:34.345Z,100227.05
2019-03-16T16:56:03.396Z,100216.36
2019-03-16T16:58:32.828Z,100211.28
2019-03-16T17:01:01.873Z,100210.98
2019-03-16T17:03:30.894Z,100201.69
2019-03-16T17:05:59.960Z,100201.56
2019-03-16T17:08:29.332Z,100196.53
2019-03-16T17:10:58.674Z,100194.02
2019-03-16T17:13:28.054Z,100186.78
2019-03-16T17:15:57.154Z,100191.23
2019-03-16T17:18:26.228Z,100195.83
2019-03-16T17:20:55.524Z,100190.22
2019-03-16T17:23:24.953Z,100198.45
2019-03-16T17:25:54.025Z,100186.03
2019-03-16T17:28:23.485Z,100186.48
2019-03-16T17:30:53.389Z,100179.69
2019-03-16T17:33:22.733Z,100180.05
2019-03-16T17:35:52.548Z,100179.86
2019-03-16T17:38:21.618Z,100173.59
2019-03-16T17:40:50.739Z,100174.16
2019-03-16T17:43:19.855Z,100174.48
2019-03-16T17:45:48.884Z,100167.80
2019-03-16T17:48:17.894Z,100161.92
2019-03-16T17:50:46.918Z,100160.61
2019-03-16T17:53:15.966Z,100157.84
2019-03-16T17:55:44.972Z,100147.98
2019-03-16T17:58:13.948Z,100138.50
2019-03-16T18:00:42.964Z,100145.27
2019-03-16T18:03:14.125Z,100146.28
2019-03-16T18:05:43.042Z,100137.82
2019-03-16T18:08:12.458Z,100146.70
2019-03-16T18:10:41.476Z,100146.61
2019-03-16T18:13:11.225Z,100145.43
2019-03-16T18:15:40.328Z,100153.66
2019-03-16T18:18:09.364Z,100140.91
2019-03-16T18:20:38.424Z,100145.82
2019-03-16T18:23:07.785Z,100149.69
2019-03-16T18:25:37.904Z,100145.82
2019-03-16T18:28:07.370Z,100155.78
2019-03-16T18:30:36.436Z,100151.03
2019-03-16T18:33:05.851Z,100148.06
2019-03-16T18:35:35.052Z,100149.60
2019-03-16T18:38:05.828Z,100143.26
2019-03-16T18:40:34.882Z,100140.47
2019-03-16T18:43:03.893Z,100145.22
2019-03-16T18:45:33.296Z,100139.84
2019-03-16T18:48:02.314Z,100141.52
2019-03-16T18:50:31.339Z,100138.83
2019-03-16T18:53:00.402Z,100136.77
2019-03-16T18:55:29.392Z,100135.71
2019-03-16T18:57:58.576Z,100133.46
2019-03-16T19:00:27.974Z,100129.33
2019-03-16T19:02:57.749Z,100137.62
2019-03-16T19:05:27.150Z,100128.81
2019-03-16T19:07:56.470Z,100123.72
2019-03-16T19:10:25.828Z,100119.50
2019-03-16T19:12:54.820Z,100115.91
2019-03-16T19:15:23.836Z,100113.08
2019-03-16T19:17:58.725Z,100099.59
2019-03-16T19:20:23.610Z,100104.31
2019-03-16T19:22:52.740Z,100105.11
2019-03-16T19:25:22.005Z,100101.33
2019-03-16T19:27:51.046Z,100095.30
2019-03-16T19:30:20.117Z,100098.31
2019-03-16T19:32:49.191Z,100094.27
2019-03-16T19:35:18.266Z,100086.16
2019-03-16T19:37:47.656Z,100085.40
2019-03-16T19:40:16.740Z,100080.84
2019-03-16T19:42:47.011Z,100081.89
2019-03-16T19:45:16.417Z,100082.82
2019-03-16T19:47:45.842Z,100075.56
2019-03-16T19:50:15.289Z,100073.65
2019-03-16T19:52:44.366Z,100068.94
2019-03-16T19:55:14.129Z,100067.76
2019-03-16T19:57:43.154Z,100067.84
2019-03-16T20:00:13.551Z,100058.13
2019-03-16T20:02:50.008Z,100050.55
2019-03-16T20:05:13.317Z,100051.02
2019-03-16T20:07:42.689Z,100048.62
2019-03-16T20:10:13.037Z,100042.47
2019-03-16T20:12:42.376Z,100042.34
2019-03-16T20:15:11.796Z,100037.59
2019-03-16T20:17:40.838Z,100027.02
2019-03-16T20:20:10.353Z,100034.11
2019-03-16T20:22:39.692Z,100024.72
2019-03-16T20:25:09.171Z,100026.67
2019-03-16T20:27:38.495Z,100016.36
2019-03-16T20:30:08.558Z,100005.66
2019-03-16T20:32:37.667Z,100003.49
2019-03-16T20:35:07.192Z,100002.64
2019-03-16T20:37:36.245Z,100003.59
2019-03-16T20:40:06.203Z,99998.84
2019-03-16T20:42:35.243Z,100002.48
2019-03-16T20:45:05.193Z,99998.67
2019-03-16T20:47:34.685Z,99993.92
2019-03-16T20:50:04.530Z,99996.38
2019-03-16T20:52:33.663Z,100005.09
2019-03-16T20:55:02.686Z,100000.31
2019-03-16T20:57:32.341Z,99999.50
2019-03-16T21:00:01.343Z,99999.92
2019-03-16T21:02:30.381Z,99995.77
2019-03-16T21:04:59.451Z,99998.55
2019-03-16T21:07:28.469Z,100006.53
2019-03-16T21:09:57.911Z,99999.66
2019-03-16T21:12:26.984Z,99999.86
2019-03-16T21:14:56.329Z,100002.05
2019-03-16T21:17:25.719Z,99991.60
2019-03-16T21:19:55.140Z,99989.56
2019-03-16T21:22:35.312Z,99990.52
2019-03-16T21:24:55.300Z,99996.02
2019-03-16T21:27:24.446Z,99995.80
2019-03-16T21:29:53.927Z,100002.12
2019-03-16T21:32:22.951Z,100003.22
2019-03-16T21:34:51.987Z,99992.16
2019-03-16T21:37:21.331Z,99983.84
2019-03-16T21:39:50.342Z,99978.73
2019-03-16T21:42:19.373Z,99990.88
2019-03-16T21:44:48.371Z,99978.83
2019-03-16T21:47:17.378Z,99981.84
2019-03-16T21:49:46.405Z,99993.92
2019-03-16T21:52:15.424Z,99976.53
2019-03-16T21:54:44.761Z,99971.36
2019-03-16T21:57:13.946Z,99979.08
2019-03-16T21:59:43.435Z,99968.34
2019-03-16T22:02:13.168Z,99974.10
2019-03-16T22:04:42.263Z,99968.53
2019-03-16T22:07:11.307Z,99985.88
2019-03-16T22:09:40.718Z,99973.19
2019-03-16T22:12:09.736Z,99969.64
2019-03-16T22:14:39.075Z,99959.73
2019-03-16T22:17:08.098Z,99967.29
2019-03-16T22:19:37.166Z,99953.88
2019-03-16T22:22:06.231Z,99951.88
2019-03-16T22:24:35.443Z,99958.77
2019-03-16T22:27:04.465Z,99955.51
2019-03-16T22:29:33.509Z,99949.04
2019-03-16T22:32:02.587Z,99947.31
2019-03-16T22:34:32.034Z,99954.25
2019-03-16T22:37:01.092Z,99929.65
2019-03-16T22:39:30.447Z,99920.06
2019-03-16T22:41:59.506Z,99921.64
2019-03-16T22:44:28.845Z,99934.14
2019-03-16T22:46:58.093Z,99909.19
2019-03-16T22:49:27.126Z,99913.52
2019-03-16T22:51:56.426Z,99904.69
2019-03-16T22:54:25.474Z,99893.18
2019-03-16T22:56:54.489Z,99890.28
2019-03-16T22:59:23.553Z,99890.28
2019-03-16T23:01:52.568Z,99870.93
2019-03-16T23:04:21.939Z,99867.68
2019-03-16T23:06:51.355Z,99859.91
2019-03-16T23:09:20.361Z,99867.15
2019-03-16T23:11:49.384Z,99879.22
2019-03-16T23:14:18.387Z,99849.42
2019-03-16T23:16:48.061Z,99868.01
2019-03-16T23:19:17.078Z,99849.42
2019-03-16T23:21:46.088Z,99849.42
2019-03-16T23:24:15.128Z,99865.56
2019-03-16T23:26:44.516Z,99865.56
2019-03-16T23:29:13.561Z,99836.45
2019-03-16T23:31:42.644Z,99850.52
2019-03-16T23:34:18.990Z,99828.60
2019-03-16T23:36:42.766Z,99828.60
2019-03-16T23:39:11.789Z,99827.98
2019-03-16T23:41:40.782Z,99824.02
2019-03-16T23:44:09.871Z,99824.33
2019-03-16T23:46:38.914Z,99813.29
2019-03-16T23:49:08.281Z,99813.29
2019-03-16T23:51:37.601Z,99802.37
2019-03-16T23:54:06.647Z,99802.37
2019-03-16T23:56:35.707Z,99788.01
2019-03-16T23:59:04.707Z,99790.45
